Time;durP1;ratioP1;P1;durP2;ratioP2;P2;SDS_P1;SDS_P2;PMS_P1;PMS_P2;Temp;Humidity;BMP_temperature;BMP_pressure;BME280_temperature;BME280_humidity;BME280_pressure;Samples;Min_cycle;Max_cycle;Signal;HPM_P1;HPM_P2
2021/07/08 00:02:19;;;;;;;4.97;1.83;;;16.90;86.20;;;;;;4930338;28;20047;-77
2021/07/08 00:04:46;;;;;;;6.63;1.58;;;16.90;86.20;;;;;;4927527;28;20146;-77
2021/07/08 00:07:14;;;;;;;4.18;1.02;;;17.00;86.10;;;;;;4934598;28;20255;-80
2021/07/08 00:09:41;;;;;;;6.25;1.27;;;16.90;86.20;;;;;;4932309;28;20075;-78
2021/07/08 00:12:10;;;;;;;2.85;1.17;;;17.00;86.60;;;;;;4928987;28;20051;-76
2021/07/08 00:14:38;;;;;;;8.35;1.40;;;17.00;86.70;;;;;;4933846;28;20068;-77
2021/07/08 00:17:07;;;;;;;3.33;1.30;;;17.10;86.60;;;;;;4936647;28;20059;-78
2021/07/08 00:19:35;;;;;;;2.55;1.30;;;17.10;86.60;;;;;;4939503;28;20048;-76
2021/07/08 00:22:02;;;;;;;2.15;1.17;;;17.10;86.50;;;;;;4941000;28;20098;-79
2021/07/08 00:24:36;;;;;;;4.25;1.40;;;17.10;86.50;;;;;;4941383;28;20298;-78
2021/07/08 00:27:30;;;;;;;5.93;1.30;;;17.10;86.30;;;;;;4935245;28;20071;-79
2021/07/08 00:30:01;;;;;;;2.80;1.15;;;17.10;86.60;;;;;;4925819;28;20047;-77
2021/07/08 00:32:37;;;;;;;4.03;1.30;;;17.10;86.60;;;;;;4937883;28;20052;-79
2021/07/08 00:35:05;;;;;;;1.73;1.10;;;17.00;86.80;;;;;;4939309;28;20190;-78
2021/07/08 00:37:32;;;;;;;4.40;1.40;;;17.00;87.00;;;;;;4936956;28;20057;-79
2021/07/08 00:40:00;;;;;;;3.33;1.00;;;17.10;86.90;;;;;;4950165;28;20406;-79
2021/07/08 00:42:32;;;;;;;6.35;0.93;;;17.00;86.40;;;;;;4943850;28;20052;-77
2021/07/08 00:44:59;;;;;;;1.38;0.85;;;16.90;86.10;;;;;;4935615;28;20055;-78
2021/07/08 00:47:45;;;;;;;3.34;1.11;;;16.90;86.20;;;;;;2921923;28;10216612;-77
2021/07/08 00:50:14;;;;;;;2.80;1.05;;;17.10;86.00;;;;;;2890883;28;10001562;-79
2021/07/08 00:52:42;;;;;;;1.53;0.80;;;17.10;86.10;;;;;;4937173;28;20123;-77
2021/07/08 00:55:11;;;;;;;4.07;0.98;;;17.00;86.10;;;;;;4932223;28;20086;-78
2021/07/08 00:57:51;;;;;;;3.15;1.30;;;17.00;86.40;;;;;;4937324;28;20051;-76
2021/07/08 01:00:22;;;;;;;3.38;1.20;;;16.90;86.40;;;;;;4931372;28;20054;-76
2021/07/08 01:02:51;;;;;;;4.20;1.38;;;17.00;86.40;;;;;;4948522;28;20058;-78
2021/07/08 01:05:19;;;;;;;3.88;1.48;;;17.00;86.20;;;;;;4945004;28;20351;-75
2021/07/08 01:07:48;;;;;;;3.97;0.98;;;17.00;86.40;;;;;;4928724;28;20127;-77
2021/07/08 01:10:18;;;;;;;7.13;1.27;;;17.00;86.40;;;;;;4933506;28;20098;-79
2021/07/08 01:12:48;;;;;;;2.33;1.00;;;17.00;86.50;;;;;;4940372;29;20051;-78
2021/07/08 01:15:16;;;;;;;2.33;1.27;;;17.10;86.40;;;;;;4941611;29;20067;-79
2021/07/08 01:17:44;;;;;;;3.53;1.10;;;17.10;86.40;;;;;;4933890;28;20366;-77
2021/07/08 01:20:13;;;;;;;2.08;1.00;;;17.00;86.50;;;;;;4941016;28;20082;-76
2021/07/08 01:22:43;;;;;;;4.20;1.42;;;17.10;86.30;;;;;;4947624;28;20055;-77
2021/07/08 01:25:14;;;;;;;5.53;1.80;;;17.10;86.30;;;;;;4933679;28;20276;-76
2021/07/08 01:27:42;;;;;;;2.20;1.30;;;17.00;86.50;;;;;;4932695;28;20115;-78
2021/07/08 01:30:12;;;;;;;2.53;1.08;;;17.00;86.70;;;;;;4929894;28;20055;-78
2021/07/08 01:32:39;;;;;;;;;;;16.90;86.90;;;;;;4949775;28;20074;-77
2021/07/08 01:35:08;;;;;;;2.55;1.05;;;16.90;86.90;;;;;;4931730;28;19961;-76
2021/07/08 01:37:36;;;;;;;2.90;1.27;;;16.90;87.00;;;;;;4942430;28;20119;-78
2021/07/08 01:40:08;;;;;;;5.40;1.20;;;16.80;87.10;;;;;;4944891;28;20075;-77
2021/07/08 01:42:35;;;;;;;3.35;1.40;;;16.70;87.40;;;;;;4934458;28;20059;-79
2021/07/08 01:45:03;;;;;;;3.42;1.13;;;16.70;87.40;;;;;;4936983;28;20074;-78
2021/07/08 01:47:30;;;;;;;4.32;0.95;;;16.60;87.60;;;;;;4930086;28;20118;-77
2021/07/08 01:49:58;;;;;;;3.25;1.30;;;16.60;87.80;;;;;;4938627;28;20075;-79
2021/07/08 01:52:25;;;;;;;2.72;1.00;;;16.60;88.00;;;;;;4928748;28;20411;-76
2021/07/08 01:54:53;;;;;;;7.18;1.17;;;16.60;88.30;;;;;;4929753;28;20130;-77
2021/07/08 01:57:22;;;;;;;3.05;1.10;;;16.60;88.10;;;;;;4927177;28;20071;-78
2021/07/08 01:59:50;;;;;;;3.55;1.13;;;16.60;88.10;;;;;;4927887;28;20412;-78
2021/07/08 02:02:18;;;;;;;2.60;1.08;;;16.60;88.00;;;;;;4930810;28;20055;-78
2021/07/08 02:04:45;;;;;;;3.35;1.15;;;16.60;88.00;;;;;;4941269;28;20054;-76
2021/07/08 02:07:12;;;;;;;2.88;0.90;;;16.60;87.90;;;;;;4931098;28;20075;-78
2021/07/08 02:09:40;;;;;;;3.10;1.90;;;16.60;87.90;;;;;;4945871;28;20227;-77
2021/07/08 02:12:09;;;;;;;2.67;0.93;;;16.60;87.90;;;;;;4926997;28;20115;-76
2021/07/08 02:14:38;;;;;;;1.97;1.07;;;16.60;87.80;;;;;;4928710;28;20082;-76
2021/07/08 02:17:05;;;;;;;2.40;1.23;;;16.70;87.80;;;;;;4930092;28;20082;-77
2021/07/08 02:19:39;;;;;;;3.83;1.23;;;16.80;87.30;;;;;;4932647;28;20047;-76
2021/07/08 02:22:07;;;;;;;2.47;1.30;;;16.90;87.30;;;;;;4935657;28;20107;-78
2021/07/08 02:24:34;;;;;;;2.33;1.02;;;16.80;87.30;;;;;;4930815;28;20220;-78
2021/07/08 02:27:01;;;;;;;3.08;1.20;;;16.80;87.50;;;;;;4927639;28;20115;-78
2021/07/08 02:29:34;;;;;;;2.83;1.20;;;16.80;87.40;;;;;;4924756;28;20316;-77
2021/07/08 02:32:04;;;;;;;3.40;1.02;;;16.70;87.70;;;;;;4930657;28;20067;-77
2021/07/08 02:34:32;;;;;;;1.80;1.08;;;16.70;87.70;;;;;;4929573;28;20111;-80
2021/07/08 02:36:59;;;;;;;2.50;0.70;;;16.80;87.60;;;;;;4924857;28;20546;-78
2021/07/08 02:39:26;;;;;;;2.97;1.00;;;16.70;87.50;;;;;;4927665;28;20166;-76
2021/07/08 02:41:53;;;;;;;2.70;1.25;;;16.70;87.50;;;;;;4930252;28;20047;-77
2021/07/08 02:44:20;;;;;;;3.47;1.13;;;16.70;87.50;;;;;;4941794;28;20118;-77
2021/07/08 02:46:48;;;;;;;3.60;1.20;;;16.60;87.60;;;;;;4931341;28;20063;-76
2021/07/08 02:49:16;;;;;;;2.28;1.00;;;16.60;87.90;;;;;;4952250;28;20127;-77
2021/07/08 02:51:43;;;;;;;4.38;1.30;;;16.60;88.10;;;;;;4941068;28;20114;-76
2021/07/08 02:54:11;;;;;;;2.97;1.27;;;16.50;88.40;;;;;;4929531;28;20071;-76
2021/07/08 02:56:42;;;;;;;4.38;1.15;;;16.50;88.40;;;;;;4926373;28;20472;-79
2021/07/08 02:59:09;;;;;;;1.70;0.82;;;16.50;88.30;;;;;;4929241;28;20058;-75
2021/07/08 03:01:37;;;;;;;4.30;1.88;;;16.50;88.20;;;;;;4921972;28;20115;-76
2021/07/08 03:04:05;;;;;;;2.30;1.08;;;16.50;88.30;;;;;;4927405;28;20071;-78
2021/07/08 03:06:35;;;;;;;3.20;1.25;;;16.60;88.30;;;;;;4926776;28;20058;-78
2021/07/08 03:09:03;;;;;;;3.13;1.60;;;16.60;88.30;;;;;;4928416;28;20120;-78
2021/07/08 03:11:31;;;;;;;3.00;0.98;;;16.60;88.00;;;;;;4925833;28;20127;-77
2021/07/08 03:13:58;;;;;;;1.73;0.90;;;16.70;88.00;;;;;;4928712;28;20398;-77
2021/07/08 03:16:25;;;;;;;2.25;0.95;;;16.70;87.90;;;;;;4940283;28;20111;-75
2021/07/08 03:18:52;;;;;;;4.55;1.33;;;16.70;87.90;;;;;;4942251;28;20055;-77
2021/07/08 03:21:19;;;;;;;2.58;1.30;;;16.70;87.80;;;;;;4940322;28;20118;-77
2021/07/08 03:23:48;;;;;;;3.83;1.10;;;16.70;87.90;;;;;;4928658;28;20067;-75
2021/07/08 03:26:15;;;;;;;1.85;1.05;;;16.60;88.10;;;;;;4942960;28;20070;-75
2021/07/08 03:28:42;;;;;;;3.00;1.27;;;16.60;88.00;;;;;;4931208;28;20070;-76
2021/07/08 03:31:10;;;;;;;3.53;1.30;;;16.60;88.00;;;;;;4931651;28;20213;-77
2021/07/08 03:33:37;;;;;;;2.85;1.00;;;16.50;88.10;;;;;;4930638;28;20075;-75
2021/07/08 03:36:05;;;;;;;4.93;1.10;;;16.50;88.50;;;;;;4925192;28;20127;-76
2021/07/08 03:38:32;;;;;;;6.40;1.38;;;16.50;88.50;;;;;;4930511;28;20048;-79
2021/07/08 03:41:00;;;;;;;4.43;1.30;;;16.50;88.70;;;;;;4938042;28;20032;-76
2021/07/08 03:43:27;;;;;;;8.13;1.35;;;16.60;88.50;;;;;;4930875;28;20052;-77
2021/07/08 03:45:55;;;;;;;4.45;1.00;;;16.60;88.40;;;;;;4930885;28;20066;-78
2021/07/08 03:48:22;;;;;;;3.90;1.00;;;16.60;88.10;;;;;;4938765;28;20066;-78
2021/07/08 03:50:49;;;;;;;3.33;1.00;;;16.60;88.20;;;;;;4929771;28;20303;-77
2021/07/08 03:53:19;;;;;;;5.57;1.10;;;16.60;88.30;;;;;;4927837;28;20050;-77
2021/07/08 03:55:46;;;;;;;6.25;1.42;;;16.60;88.50;;;;;;4931231;28;20251;-76
2021/07/08 03:58:15;;;;;;;4.47;1.27;;;16.60;88.50;;;;;;4946070;28;20122;-79
2021/07/08 04:00:43;;;;;;;1.95;0.93;;;16.60;88.40;;;;;;4927122;28;20080;-78
2021/07/08 04:03:15;;;;;;;4.80;1.30;;;16.70;88.30;;;;;;4922492;28;20159;-77
2021/07/08 04:05:43;;;;;;;2.33;1.08;;;16.60;88.40;;;;;;4937459;28;20075;-76
2021/07/08 04:08:11;;;;;;;4.10;1.45;;;16.70;88.30;;;;;;4926677;28;20056;-78
2021/07/08 04:10:40;;;;;;;4.32;1.05;;;16.70;88.30;;;;;;4926624;28;20067;-78
2021/07/08 04:13:09;;;;;;;2.58;1.02;;;16.70;88.20;;;;;;4928187;28;20123;-78
2021/07/08 04:15:38;;;;;;;2.17;1.03;;;16.70;88.10;;;;;;4929672;28;20062;-75
2021/07/08 04:18:07;;;;;;;2.88;1.10;;;16.80;88.00;;;;;;4932191;28;20972;-78
2021/07/08 04:20:34;;;;;;;3.30;1.00;;;16.90;87.70;;;;;;4944225;28;20043;-76
2021/07/08 04:23:01;;;;;;;2.58;1.02;;;16.90;87.70;;;;;;4935498;28;20106;-77
2021/07/08 04:25:29;;;;;;;3.00;1.17;;;17.00;87.40;;;;;;4928220;28;20070;-77
2021/07/08 04:27:57;;;;;;;3.55;1.20;;;17.00;87.20;;;;;;4933559;28;20071;-77
2021/07/08 04:30:26;;;;;;;3.90;1.20;;;16.90;87.00;;;;;;4947027;28;20094;-77
2021/07/08 04:32:56;;;;;;;2.85;1.27;;;16.90;87.40;;;;;;4930555;28;20062;-77
2021/07/08 04:35:29;;;;;;;5.20;1.20;;;17.10;87.40;;;;;;4926127;28;20263;-77
2021/07/08 04:37:58;;;;;;;2.38;1.15;;;17.10;87.10;;;;;;4932303;28;20039;-78
2021/07/08 04:40:26;;;;;;;2.28;1.17;;;17.10;87.20;;;;;;4947249;28;20052;-78
2021/07/08 04:42:53;;;;;;;1.45;1.10;;;17.20;87.10;;;;;;4944199;28;20446;-77
2021/07/08 04:45:21;;;;;;;4.18;1.05;;;17.30;86.30;;;;;;4933055;28;20124;-78
2021/07/08 04:47:49;;;;;;;4.65;1.20;;;17.20;86.40;;;;;;4946773;28;20075;-77
2021/07/08 04:50:20;;;;;;;1.75;1.33;;;17.20;86.50;;;;;;4929397;28;20047;-78
2021/07/08 04:52:48;;;;;;;6.05;1.05;;;17.20;86.50;;;;;;4935236;28;20162;-77
2021/07/08 04:55:17;;;;;;;4.18;1.10;;;17.30;86.40;;;;;;4936168;28;20083;-75
2021/07/08 04:57:45;;;;;;;7.45;1.17;;;17.40;86.00;;;;;;4929078;28;20059;-77
2021/07/08 05:00:14;;;;;;;1.92;1.00;;;17.30;85.90;;;;;;4922750;28;20104;-79
2021/07/08 05:02:43;;;;;;;4.75;1.20;;;17.40;85.90;;;;;;4943819;28;20071;-78
2021/07/08 05:05:12;;;;;;;4.78;1.35;;;17.40;86.00;;;;;;4929224;28;20066;-76
2021/07/08 05:07:42;;;;;;;5.28;1.27;;;17.40;85.70;;;;;;4928031;28;20055;-77
2021/07/08 05:10:11;;;;;;;1.75;1.00;;;17.30;85.80;;;;;;4933016;28;20056;-78
2021/07/08 05:12:39;;;;;;;4.30;1.33;;;17.40;85.80;;;;;;4929063;28;20093;-78
2021/07/08 05:15:07;;;;;;;4.28;0.95;;;17.40;85.90;;;;;;4929399;28;20074;-78
2021/07/08 05:17:34;;;;;;;2.47;1.15;;;17.40;85.90;;;;;;4943526;28;20417;-78
2021/07/08 05:20:01;;;;;;;3.95;1.00;;;17.40;86.10;;;;;;4945653;28;20090;-76
2021/07/08 05:22:33;;;;;;;2.60;0.98;;;17.60;85.80;;;;;;4946296;28;20425;-79
2021/07/08 05:25:01;;;;;;;4.68;1.52;;;17.70;85.30;;;;;;4928706;28;21721;-77
2021/07/08 05:27:32;;;;;;;3.50;1.38;;;17.80;84.80;;;;;;4934331;28;20154;-76
2021/07/08 05:30:00;;;;;;;4.13;1.20;;;17.80;84.80;;;;;;4925935;28;20082;-78
2021/07/08 05:32:27;;;;;;;3.50;1.40;;;17.80;84.60;;;;;;4938394;28;20052;-77
2021/07/08 05:34:55;;;;;;;5.18;1.23;;;17.70;84.70;;;;;;4945130;28;20055;-77
2021/07/08 05:37:22;;;;;;;2.20;1.10;;;17.80;84.70;;;;;;4950137;28;20047;-78
2021/07/08 05:39:49;;;;;;;2.97;1.20;;;17.90;84.80;;;;;;4928994;28;20307;-78
2021/07/08 05:42:19;;;;;;;3.03;1.30;;;17.90;84.70;;;;;;4924835;28;20063;-76
2021/07/08 05:44:46;;;;;;;5.35;1.10;;;17.90;84.60;;;;;;4948818;28;20303;-76
2021/07/08 05:47:15;;;;;;;4.50;1.50;;;17.90;84.50;;;;;;4938322;28;20042;-75
2021/07/08 05:49:43;;;;;;;2.85;1.20;;;18.00;84.50;;;;;;4944267;28;20336;-76
2021/07/08 05:52:11;;;;;;;4.13;1.17;;;18.00;84.60;;;;;;4929721;28;20353;-76
2021/07/08 05:54:38;;;;;;;2.17;1.05;;;18.00;84.70;;;;;;4931920;28;20075;-78
2021/07/08 05:57:06;;;;;;;3.53;1.15;;;18.10;84.70;;;;;;4946020;28;20139;-76
2021/07/08 05:59:35;;;;;;;5.10;1.48;;;18.10;84.50;;;;;;4933314;28;20335;-77
2021/07/08 06:02:02;;;;;;;2.75;1.10;;;18.20;84.10;;;;;;4926383;28;20461;-77
2021/07/08 06:04:29;;;;;;;2.38;1.17;;;18.20;84.10;;;;;;4929540;28;20060;-78
2021/07/08 06:06:57;;;;;;;2.22;1.00;;;18.20;84.10;;;;;;4940669;28;20334;-77
2021/07/08 06:09:25;;;;;;;3.05;1.15;;;18.30;84.00;;;;;;4931665;28;20239;-78
2021/07/08 06:11:53;;;;;;;4.28;1.00;;;18.40;84.00;;;;;;4932312;28;20111;-75
2021/07/08 06:14:20;;;;;;;1.95;1.30;;;18.50;83.70;;;;;;4929522;28;20043;-78
2021/07/08 06:16:49;;;;;;;2.83;1.23;;;18.50;83.40;;;;;;4947503;28;20122;-78
2021/07/08 06:19:16;;;;;;;3.22;1.50;;;18.50;83.30;;;;;;4931300;28;20071;-79
2021/07/08 06:21:44;;;;;;;2.53;1.23;;;18.50;83.50;;;;;;4950938;28;20083;-78
2021/07/08 06:24:12;;;;;;;2.22;1.15;;;18.40;83.70;;;;;;4930254;28;20533;-78
2021/07/08 06:26:40;;;;;;;6.53;1.27;;;18.40;83.90;;;;;;4923163;28;20051;-77
2021/07/08 06:29:07;;;;;;;2.08;1.13;;;18.40;83.80;;;;;;4929897;28;20280;-77
2021/07/08 06:31:35;;;;;;;6.28;1.20;;;18.40;83.80;;;;;;4953571;28;20122;-78
2021/07/08 06:34:05;;;;;;;3.30;1.10;;;18.50;83.50;;;;;;4933556;28;20124;-77
2021/07/08 06:36:33;;;;;;;4.50;1.13;;;18.50;83.30;;;;;;4929071;28;20481;-80
2021/07/08 06:39:00;;;;;;;2.53;1.10;;;18.60;83.30;;;;;;4942756;28;20051;-78
2021/07/08 06:41:30;;;;;;;2.17;1.08;;;18.80;82.80;;;;;;4932506;28;20252;-77
2021/07/08 06:43:57;;;;;;;4.35;1.10;;;19.10;82.20;;;;;;4927811;28;20370;-77
2021/07/08 06:46:28;;;;;;;5.82;1.50;;;19.30;81.20;;;;;;4946402;28;20051;-78
2021/07/08 06:48:58;;;;;;;4.38;1.20;;;19.60;81.20;;;;;;4937572;28;20054;-77
2021/07/08 06:51:26;;;;;;;2.60;1.20;;;19.80;79.40;;;;;;4928312;28;20074;-76
2021/07/08 06:53:54;;;;;;;2.20;1.00;;;19.90;79.00;;;;;;4926689;28;20098;-76
2021/07/08 06:56:22;;;;;;;3.08;0.93;;;20.10;78.10;;;;;;4938746;28;20355;-76
2021/07/08 06:58:49;;;;;;;2.45;0.80;;;20.10;78.80;;;;;;4931756;28;20048;-77
2021/07/08 07:01:17;;;;;;;6.35;0.95;;;20.40;78.10;;;;;;4943198;28;20058;-79
2021/07/08 07:03:44;;;;;;;4.57;1.10;;;20.50;78.40;;;;;;4941121;28;20302;-79
2021/07/08 07:06:11;;;;;;;7.53;1.30;;;20.20;78.90;;;;;;4925908;28;20075;-78
2021/07/08 07:08:40;;;;;;;3.00;1.00;;;20.10;79.50;;;;;;4933359;28;20425;-78
2021/07/08 07:11:09;;;;;;;2.00;1.10;;;20.20;79.60;;;;;;4930316;28;20052;-78
2021/07/08 07:13:36;;;;;;;4.32;1.27;;;20.30;78.30;;;;;;4931080;28;20051;-78
2021/07/08 07:16:04;;;;;;;2.08;0.90;;;20.50;77.60;;;;;;4930115;28;20123;-78
2021/07/08 07:18:31;;;;;;;2.78;1.33;;;20.90;76.90;;;;;;4927786;28;20060;-76
2021/07/08 07:20:59;;;;;;;2.58;1.17;;;21.10;76.40;;;;;;4942687;28;20066;-77
2021/07/08 07:23:26;;;;;;;2.10;0.80;;;21.20;75.90;;;;;;4929130;28;20286;-77
2021/07/08 07:25:54;;;;;;;2.28;1.17;;;21.00;75.90;;;;;;4944556;28;20055;-77
2021/07/08 07:28:22;;;;;;;3.25;1.08;;;21.10;75.40;;;;;;4927744;28;20079;-78
2021/07/08 07:30:49;;;;;;;2.60;1.05;;;20.90;75.60;;;;;;4928561;28;20106;-78
2021/07/08 07:33:16;;;;;;;2.08;0.98;;;21.00;75.50;;;;;;4938670;28;20051;-78
2021/07/08 07:35:43;;;;;;;3.25;1.00;;;21.30;75.40;;;;;;4928726;28;20239;-77
2021/07/08 07:38:12;;;;;;;3.47;1.33;;;21.60;74.80;;;;;;4924114;28;20075;-77
2021/07/08 07:40:40;;;;;;;1.95;1.00;;;21.60;74.60;;;;;;4943644;28;20220;-76
2021/07/08 07:43:08;;;;;;;1.27;0.77;;;21.60;74.80;;;;;;4943325;28;20055;-76
2021/07/08 07:45:36;;;;;;;1.35;0.80;;;21.80;74.20;;;;;;4928166;28;20359;-78
2021/07/08 07:48:03;;;;;;;1.52;0.70;;;21.70;74.50;;;;;;4928964;28;20119;-78
2021/07/08 07:50:33;;;;;;;1.80;1.00;;;22.00;73.60;;;;;;4935522;28;20059;-77
2021/07/08 07:53:00;;;;;;;2.00;0.82;;;22.10;73.00;;;;;;4943952;28;20110;-78
2021/07/08 07:55:32;;;;;;;2.33;0.88;;;22.10;72.50;;;;;;4929565;28;20101;-77
2021/07/08 07:58:03;;;;;;;2.10;0.95;;;22.20;71.90;;;;;;4925548;28;20060;-77
2021/07/08 08:00:32;;;;;;;1.92;1.23;;;22.30;71.50;;;;;;4931621;28;20078;-76
2021/07/08 08:03:00;;;;;;;6.00;0.90;;;22.40;71.30;;;;;;4924616;28;20093;-76
2021/07/08 08:05:36;;;;;;;2.80;1.05;;;22.20;72.00;;;;;;4930144;28;20055;-75
2021/07/08 08:10:50;;;;;;;1.55;0.90;;;22.50;71.50;;;;;;4937436;28;20258;-76
2021/07/08 08:13:18;;;;;;;2.63;1.10;;;22.60;71.00;;;;;;4930635;28;20062;-78
2021/07/08 08:15:50;;;;;;;2.45;0.98;;;22.80;70.50;;;;;;4935679;28;20079;-78
2021/07/08 08:18:17;;;;;;;6.10;1.73;;;22.90;70.30;;;;;;4932969;28;20106;-77
2021/07/08 08:20:45;;;;;;;1.80;0.73;;;23.00;70.10;;;;;;4930657;28;20112;-79
2021/07/08 08:23:13;;;;;;;1.15;0.73;;;23.30;68.90;;;;;;4934146;28;20047;-77
2021/07/08 08:25:40;;;;;;;1.77;0.70;;;23.60;67.30;;;;;;4932655;28;20052;-76
2021/07/08 08:28:09;;;;;;;2.55;1.20;;;23.70;67.40;;;;;;4939617;28;20126;-76
2021/07/08 08:30:37;;;;;;;1.48;0.80;;;23.90;67.00;;;;;;4931157;28;20435;-76
2021/07/08 08:33:07;;;;;;;3.40;1.00;;;24.10;66.30;;;;;;4941590;28;20090;-79
2021/07/08 08:35:34;;;;;;;1.75;1.00;;;24.40;65.80;;;;;;4936563;28;20061;-77
2021/07/08 08:38:02;;;;;;;3.58;0.98;;;24.30;64.90;;;;;;4931504;28;20047;-79
2021/07/08 08:40:29;;;;;;;2.40;1.00;;;24.50;64.80;;;;;;4948869;28;20123;-76
2021/07/08 08:42:56;;;;;;;2.33;1.02;;;24.60;64.90;;;;;;4933468;28;20078;-76
2021/07/08 08:45:24;;;;;;;2.30;1.10;;;24.90;64.30;;;;;;4937292;28;20047;-76
2021/07/08 08:48:02;;;;;;;2.58;1.05;;;25.10;63.80;;;;;;4926747;28;20082;-77
2021/07/08 08:50:35;;;;;;;3.13;0.98;;;25.20;62.80;;;;;;4934275;28;20082;-76
2021/07/08 08:53:02;;;;;;;2.22;0.77;;;25.10;62.80;;;;;;4937217;28;20054;-78
2021/07/08 08:55:30;;;;;;;2.85;1.00;;;25.30;62.70;;;;;;4943729;29;20070;-78
2021/07/08 08:57:57;;;;;;;1.83;0.80;;;25.60;62.10;;;;;;4938513;28;20043;-75
2021/07/08 09:00:47;;;;;;;1.48;0.70;;;25.80;59.70;;;;;;4935233;28;20633;-77
2021/07/08 09:03:17;;;;;;;1.00;0.68;;;26.00;60.60;;;;;;4940840;28;20086;-77
2021/07/08 09:05:49;;;;;;;1.85;0.60;;;26.10;59.60;;;;;;4939532;29;20078;-77
2021/07/08 09:08:20;;;;;;;2.25;0.80;;;26.40;59.00;;;;;;4955849;28;20060;-77
2021/07/08 09:11:04;;;;;;;3.85;1.02;;;26.40;58.80;;;;;;4940975;29;20074;-78
2021/07/08 09:14:03;;;;;;;1.70;1.02;;;26.40;58.40;;;;;;4943872;28;20079;-76
2021/07/08 09:16:33;;;;;;;3.38;0.52;;;26.40;58.40;;;;;;4952404;28;20130;-76
2021/07/08 09:19:08;;;;;;;2.78;0.55;;;26.50;56.30;;;;;;4925011;28;20236;-77
2021/07/08 09:21:39;;;;;;;2.38;0.65;;;26.60;56.10;;;;;;4956295;28;20074;-78
2021/07/08 09:24:10;;;;;;;1.40;0.70;;;26.80;55.70;;;;;;4941364;28;20063;-77
2021/07/08 09:26:39;;;;;;;7.00;0.63;;;26.80;55.20;;;;;;4935422;28;20060;-75
2021/07/08 09:29:09;;;;;;;1.75;0.77;;;26.70;55.20;;;;;;4938408;28;20043;-77
2021/07/08 09:31:37;;;;;;;2.40;0.70;;;26.60;55.50;;;;;;4939132;28;20307;-75
2021/07/08 09:34:21;;;;;;;21.58;1.67;;;26.80;54.80;;;;;;4936034;28;20056;-77
2021/07/08 09:37:09;;;;;;;2.58;0.75;;;26.80;53.80;;;;;;4929830;28;20054;-76
2021/07/08 09:39:38;;;;;;;1.00;0.70;;;27.00;54.30;;;;;;4938885;28;20118;-77
2021/07/08 09:42:07;;;;;;;5.95;0.93;;;27.40;53.40;;;;;;4951963;28;20119;-76
2021/07/08 09:44:34;;;;;;;2.35;0.93;;;27.80;49.90;;;;;;4937561;28;20079;-77
2021/07/08 09:47:02;;;;;;;3.70;0.73;;;28.20;48.60;;;;;;4929096;28;20075;-75
2021/07/08 09:49:30;;;;;;;5.13;0.98;;;28.40;49.60;;;;;;4924770;28;20056;-77
2021/07/08 09:51:58;;;;;;;3.00;0.60;;;28.60;48.20;;;;;;4933998;28;20063;-76
2021/07/08 09:55:01;;;;;;;9.20;1.63;;;28.60;47.30;;;;;;4933133;28;20047;-76
2021/07/08 09:57:45;;;;;;;3.45;0.63;;;28.70;48.50;;;;;;4923998;28;20066;-76
2021/07/08 10:00:35;;;;;;;2.03;0.80;;;28.70;47.30;;;;;;4922453;28;20513;-75
2021/07/08 10:03:04;;;;;;;2.38;0.88;;;28.70;46.60;;;;;;4947279;28;20051;-76
2021/07/08 10:05:34;;;;;;;4.63;0.70;;;28.90;46.20;;;;;;4934094;28;20075;-76
2021/07/08 10:08:03;;;;;;;2.25;0.70;;;28.90;46.50;;;;;;4930757;28;20486;-75
2021/07/08 10:10:31;;;;;;;6.18;1.67;;;29.20;45.00;;;;;;4945801;28;20132;-77
2021/07/08 10:12:59;;;;;;;1.15;0.60;;;29.40;45.40;;;;;;4935498;28;20048;-77
2021/07/08 10:15:29;;;;;;;1.73;0.50;;;29.20;45.10;;;;;;4947813;28;20054;-76
2021/07/08 10:17:59;;;;;;;1.25;0.40;;;29.50;44.50;;;;;;4927404;28;20055;-76
2021/07/08 10:20:29;;;;;;;2.72;0.70;;;29.60;43.70;;;;;;4933052;28;20119;-76
2021/07/08 10:22:57;;;;;;;1.48;0.60;;;29.20;42.90;;;;;;4933922;28;20336;-76
2021/07/08 10:25:25;;;;;;;1.83;0.70;;;29.60;44.90;;;;;;4933528;28;20424;-77
2021/07/08 10:27:54;;;;;;;3.03;0.82;;;29.30;44.60;;;;;;4932281;28;20118;-77
2021/07/08 10:30:22;;;;;;;2.72;0.98;;;29.20;43.90;;;;;;4931956;28;20442;-76
2021/07/08 10:32:56;;;;;;;1.85;0.93;;;28.90;46.40;;;;;;4931801;28;20078;-75
2021/07/08 10:35:38;;;;;;;4.75;0.88;;;28.80;46.60;;;;;;4936994;28;20058;-80
2021/07/08 10:38:29;;;;;;;7.00;1.13;;;28.50;46.70;;;;;;4927432;28;20082;-76
2021/07/08 10:40:59;;;;;;;2.17;0.68;;;28.10;49.20;;;;;;4929315;28;20358;-76
2021/07/08 10:43:34;;;;;;;2.38;1.05;;;28.40;49.00;;;;;;4935150;28;20078;-75
2021/07/08 10:46:03;;;;;;;2.05;0.77;;;28.30;47.60;;;;;;4931919;28;20343;-75
2021/07/08 10:48:40;;;;;;;1.83;0.77;;;28.60;48.70;;;;;;4946154;28;20064;-78
2021/07/08 10:51:08;;;;;;;0.50;0.40;;;28.90;47.70;;;;;;4927251;28;20054;-76
2021/07/08 10:53:40;;;;;;;1.88;0.50;;;29.10;46.10;;;;;;4930384;28;20089;-75
2021/07/08 10:56:12;;;;;;;2.17;0.57;;;29.60;44.00;;;;;;4930122;28;20059;-75
2021/07/08 10:58:49;;;;;;;0.50;0.30;;;29.50;43.20;;;;;;4931919;28;20068;-76
2021/07/08 11:01:43;;;;;;;0.60;0.50;;;29.00;45.00;;;;;;4946361;28;20070;-75
2021/07/08 11:04:12;;;;;;;1.52;0.52;;;28.10;46.40;;;;;;4933885;28;20055;-77
2021/07/08 11:06:40;;;;;;;0.73;0.50;;;27.50;47.70;;;;;;4937361;28;20075;-78
2021/07/08 11:09:18;;;;;;;1.63;0.73;;;27.50;47.90;;;;;;4936009;28;20078;-76
2021/07/08 11:12:04;;;;;;;2.05;0.60;;;27.40;49.00;;;;;;4932553;28;20047;-77
2021/07/08 11:14:36;;;;;;;1.55;0.60;;;28.10;47.50;;;;;;4936612;28;20056;-75
2021/07/08 11:17:18;;;;;;;0.52;0.40;;;29.00;45.60;;;;;;4944245;28;20074;-75
2021/07/08 11:19:47;;;;;;;0.93;0.45;;;29.20;45.10;;;;;;4941394;28;20062;-76
2021/07/08 11:22:31;;;;;;;;;;;28.60;44.50;;;;;;4936788;28;20063;-76
2021/07/08 11:24:58;;;;;;;2.15;0.50;;;28.10;44.10;;;;;;4937377;28;19926;-75
2021/07/08 11:27:37;;;;;;;0.50;0.40;;;27.60;46.80;;;;;;4936745;28;20055;-77
2021/07/08 11:30:31;;;;;;;0.88;0.40;;;28.30;47.40;;;;;;4933232;28;20043;-77
2021/07/08 11:33:04;;;;;;;2.22;0.50;;;28.60;45.20;;;;;;4950651;28;20101;-76
2021/07/08 11:35:35;;;;;;;1.77;0.50;;;29.10;42.60;;;;;;4937742;28;20055;-75
2021/07/08 11:38:04;;;;;;;0.90;0.40;;;29.60;42.30;;;;;;4933897;28;20373;-77
2021/07/08 11:40:42;;;;;;;0.75;0.40;;;30.50;40.50;;;;;;4936123;28;20056;-77
2021/07/08 11:43:22;;;;;;;0.90;0.50;;;30.60;39.60;;;;;;4937521;28;20063;-74
2021/07/08 11:45:52;;;;;;;2.03;0.50;;;29.50;40.10;;;;;;4933305;28;20059;-76
2021/07/08 11:48:28;;;;;;;0.68;0.50;;;28.80;41.90;;;;;;4946780;28;20052;-76
2021/07/08 11:50:56;;;;;;;0.50;0.32;;;28.80;42.20;;;;;;4933979;28;20059;-77
2021/07/08 11:53:24;;;;;;;1.95;0.50;;;29.40;41.80;;;;;;4937890;28;20051;-76
2021/07/08 11:55:52;;;;;;;0.80;0.50;;;29.40;42.00;;;;;;4937741;28;20430;-76
2021/07/08 11:58:25;;;;;;;1.65;0.50;;;29.20;42.50;;;;;;4950016;28;20047;-78
2021/07/08 12:00:54;;;;;;;0.65;0.47;;;30.00;41.10;;;;;;4929664;28;20043;-76
2021/07/08 12:03:26;;;;;;;1.40;0.60;;;30.20;41.00;;;;;;4942953;28;20051;-76
2021/07/08 12:06:00;;;;;;;1.65;0.52;;;30.40;40.30;;;;;;4949333;28;20083;-77
2021/07/08 12:08:33;;;;;;;0.70;0.50;;;31.00;40.90;;;;;;4938084;28;20063;-77
2021/07/08 12:11:10;;;;;;;2.75;0.50;;;30.20;40.90;;;;;;4944596;28;20040;-76
2021/07/08 12:13:51;;;;;;;1.38;0.63;;;30.60;40.70;;;;;;4938805;28;20701;-76
2021/07/08 12:16:31;;;;;;;0.40;0.30;;;30.60;39.80;;;;;;4938475;28;20056;-75
2021/07/08 12:19:32;;;;;;;1.70;0.47;;;30.00;40.90;;;;;;4943668;28;20219;-76
2021/07/08 12:22:02;;;;;;;1.08;0.43;;;30.50;39.30;;;;;;4935251;28;20044;-76
2021/07/08 12:24:38;;;;;;;1.95;0.60;;;29.70;40.20;;;;;;4940826;28;20141;-75
2021/07/08 12:27:06;;;;;;;;;;;29.90;41.60;;;;;;4939002;28;20071;-77
2021/07/08 12:29:37;;;;;;;2.00;0.50;;;30.50;41.10;;;;;;4932026;28;19927;-76
2021/07/08 12:32:07;;;;;;;0.80;0.50;;;29.50;42.20;;;;;;4932971;28;20047;-75
2021/07/08 12:34:36;;;;;;;1.02;0.50;;;30.10;42.20;;;;;;4932261;28;20119;-75
2021/07/08 12:37:13;;;;;;;0.60;0.50;;;31.00;39.10;;;;;;4929060;28;20771;-76
2021/07/08 12:39:41;;;;;;;0.80;0.60;;;32.10;37.70;;;;;;4931950;28;20079;-75
2021/07/08 12:42:16;;;;;;;1.02;0.50;;;31.50;38.20;;;;;;4935083;28;20246;-77
2021/07/08 12:44:52;;;;;;;0.40;0.40;;;31.90;38.20;;;;;;4942157;28;20082;-76
2021/07/08 12:47:20;;;;;;;2.92;0.47;;;31.20;39.10;;;;;;4940715;28;20521;-75
2021/07/08 12:49:48;;;;;;;1.10;0.53;;;30.80;39.60;;;;;;4933974;28;20050;-75
2021/07/08 12:52:16;;;;;;;1.75;0.60;;;31.20;38.70;;;;;;4951739;28;20475;-73
2021/07/08 12:54:44;;;;;;;0.85;0.50;;;32.30;36.50;;;;;;4936105;28;20358;-77
2021/07/08 12:57:14;;;;;;;0.60;0.40;;;32.10;36.30;;;;;;4933331;28;20051;-77
2021/07/08 12:59:55;;;;;;;1.10;0.50;;;31.80;37.00;;;;;;4931061;28;20055;-75
2021/07/08 13:02:23;;;;;;;1.42;0.70;;;31.30;37.70;;;;;;4932071;28;20047;-75
2021/07/08 13:05:00;;;;;;;0.80;0.60;;;30.80;39.80;;;;;;4946604;28;20123;-76
2021/07/08 13:07:29;;;;;;;;;;;30.20;40.80;;;;;;4930014;28;20258;-75